sensor_id;sensor_type;location;lat;lon;timestamp;pressure;altitude;pressure_sealevel;temperature;humidity
3748;BME280;1889;50.058;8.688;2023-02-12T00:01:54;102342.20;;;11.47;57.20
3748;BME280;1889;50.058;8.688;2023-02-12T00:04:23;102345.41;;;11.56;56.97
3748;BME280;1889;50.058;8.688;2023-02-12T00:06:53;102342.77;;;11.56;56.98
3748;BME280;1889;50.058;8.688;2023-02-12T00:09:22;102344.12;;;11.58;56.93
3748;BME280;1889;50.058;8.688;2023-02-12T00:11:51;102353.45;;;11.65;56.71
3748;BME280;1889;50.058;8.688;2023-02-12T00:14:21;102349.91;;;11.63;56.79
3748;BME280;1889;50.058;8.688;2023-02-12T00:16:50;102349.52;;;11.68;56.57
3748;BME280;1889;50.058;8.688;2023-02-12T00:19:19;102349.09;;;11.69;56.63
3748;BME280;1889;50.058;8.688;2023-02-12T00:21:49;102345.16;;;11.70;56.65
3748;BME280;1889;50.058;8.688;2023-02-12T00:24:18;102340.72;;;11.68;56.67
3748;BME280;1889;50.058;8.688;2023-02-12T00:26:47;102335.91;;;11.08;57.79
3748;BME280;1889;50.058;8.688;2023-02-12T00:29:18;102336.95;;;11.18;57.63
3748;BME280;1889;50.058;8.688;2023-02-12T00:31:47;102340.59;;;11.26;57.57
3748;BME280;1889;50.058;8.688;2023-02-12T00:34:16;102340.75;;;11.38;57.32
3748;BME280;1889;50.058;8.688;2023-02-12T00:36:46;102342.02;;;11.34;57.30
3748;BME280;1889;50.058;8.688;2023-02-12T00:39:15;102341.18;;;11.38;57.24
3748;BME280;1889;50.058;8.688;2023-02-12T00:41:44;102339.27;;;11.26;57.56
3748;BME280;1889;50.058;8.688;2023-02-12T00:44:14;102340.67;;;10.80;58.52
3748;BME280;1889;50.058;8.688;2023-02-12T00:46:43;102338.97;;;10.82;58.69
3748;BME280;1889;50.058;8.688;2023-02-12T00:49:12;102343.78;;;11.07;58.15
3748;BME280;1889;50.058;8.688;2023-02-12T00:51:42;102347.97;;;11.22;57.80
3748;BME280;1889;50.058;8.688;2023-02-12T00:54:11;102341.93;;;11.29;57.67
3748;BME280;1889;50.058;8.688;2023-02-12T00:56:41;102340.72;;;11.37;57.62
3748;BME280;1889;50.058;8.688;2023-02-12T00:59:10;102340.84;;;11.44;57.42
3748;BME280;1889;50.058;8.688;2023-02-12T01:01:39;102345.80;;;11.51;57.30
3748;BME280;1889;50.058;8.688;2023-02-12T01:04:08;102347.59;;;11.55;57.21
3748;BME280;1889;50.058;8.688;2023-02-12T01:06:38;102342.37;;;11.58;57.25
3748;BME280;1889;50.058;8.688;2023-02-12T01:09:08;102346.19;;;11.49;57.27
3748;BME280;1889;50.058;8.688;2023-02-12T01:11:37;102337.77;;;11.45;57.37
3748;BME280;1889;50.058;8.688;2023-02-12T01:14:07;102341.67;;;11.40;57.48
3748;BME280;1889;50.058;8.688;2023-02-12T01:16:36;102339.44;;;11.38;57.51
3748;BME280;1889;50.058;8.688;2023-02-12T01:19:06;102342.18;;;11.46;57.46
3748;BME280;1889;50.058;8.688;2023-02-12T01:21:35;102331.26;;;11.50;57.39
3748;BME280;1889;50.058;8.688;2023-02-12T01:24:05;102341.48;;;11.58;57.32
3748;BME280;1889;50.058;8.688;2023-02-12T01:26:34;102343.74;;;11.63;57.24
3748;BME280;1889;50.058;8.688;2023-02-12T01:29:05;102345.55;;;11.65;57.23
3748;BME280;1889;50.058;8.688;2023-02-12T01:31:37;102341.13;;;11.64;57.20
3748;BME280;1889;50.058;8.688;2023-02-12T01:34:07;102341.62;;;11.67;57.12
3748;BME280;1889;50.058;8.688;2023-02-12T01:36:36;102335.04;;;11.70;57.04
3748;BME280;1889;50.058;8.688;2023-02-12T01:39:06;102341.26;;;11.73;56.93
3748;BME280;1889;50.058;8.688;2023-02-12T01:41:38;102345.27;;;11.76;56.93
3748;BME280;1889;50.058;8.688;2023-02-12T01:44:24;102338.68;;;11.75;56.94
3748;BME280;1889;50.058;8.688;2023-02-12T01:47:00;102343.44;;;11.72;56.99
3748;BME280;1889;50.058;8.688;2023-02-12T01:49:41;102336.77;;;11.68;57.06
3748;BME280;1889;50.058;8.688;2023-02-12T01:52:29;102339.86;;;11.69;57.08
3748;BME280;1889;50.058;8.688;2023-02-12T01:54:55;102341.03;;;11.57;57.14
3748;BME280;1889;50.058;8.688;2023-02-12T01:57:30;102342.72;;;11.53;57.28
3748;BME280;1889;50.058;8.688;2023-02-12T02:00:22;102340.11;;;11.55;57.35
3748;BME280;1889;50.058;8.688;2023-02-12T02:02:54;102339.28;;;11.57;57.33
3748;BME280;1889;50.058;8.688;2023-02-12T02:08:09;102337.53;;;11.00;58.25
3748;BME280;1889;50.058;8.688;2023-02-12T02:10:39;102342.92;;;11.08;58.15
3748;BME280;1889;50.058;8.688;2023-02-12T02:13:08;102337.49;;;11.25;57.92
3748;BME280;1889;50.058;8.688;2023-02-12T02:15:57;102340.24;;;11.33;57.84
3748;BME280;1889;50.058;8.688;2023-02-12T02:18:45;102334.51;;;11.32;57.79
3748;BME280;1889;50.058;8.688;2023-02-12T02:24:10;102335.78;;;11.01;58.38
3748;BME280;1889;50.058;8.688;2023-02-12T02:30:05;102343.11;;;11.19;58.19
3748;BME280;1889;50.058;8.688;2023-02-12T02:32:22;102345.83;;;11.25;58.07
3748;BME280;1889;50.058;8.688;2023-02-12T02:35:04;102334.16;;;11.09;58.20
3748;BME280;1889;50.058;8.688;2023-02-12T02:42:53;102332.09;;;10.65;59.33
3748;BME280;1889;50.058;8.688;2023-02-12T02:45:25;102329.98;;;10.70;59.25
3748;BME280;1889;50.058;8.688;2023-02-12T02:48:12;102326.22;;;10.81;59.19
3748;BME280;1889;50.058;8.688;2023-02-12T02:50:45;102322.92;;;10.93;59.03
3748;BME280;1889;50.058;8.688;2023-02-12T02:53:30;102323.53;;;11.04;58.80
3748;BME280;1889;50.058;8.688;2023-02-12T02:56:02;102323.25;;;11.14;58.63
3748;BME280;1889;50.058;8.688;2023-02-12T02:58:35;102326.89;;;11.22;58.51
3748;BME280;1889;50.058;8.688;2023-02-12T03:01:13;102323.88;;;11.26;58.46
3748;BME280;1889;50.058;8.688;2023-02-12T03:03:41;102323.45;;;11.28;58.38
3748;BME280;1889;50.058;8.688;2023-02-12T03:08:52;102326.97;;;11.28;58.40
3748;BME280;1889;50.058;8.688;2023-02-12T03:11:27;102325.77;;;11.34;58.26
3748;BME280;1889;50.058;8.688;2023-02-12T03:17:08;102323.67;;;11.41;58.04
3748;BME280;1889;50.058;8.688;2023-02-12T03:19:47;102328.97;;;11.44;57.94
3748;BME280;1889;50.058;8.688;2023-02-12T03:22:20;102330.72;;;11.44;57.96
3748;BME280;1889;50.058;8.688;2023-02-12T03:25:01;102335.24;;;11.51;57.84
3748;BME280;1889;50.058;8.688;2023-02-12T03:27:36;102337.93;;;11.56;57.78
3748;BME280;1889;50.058;8.688;2023-02-12T03:30:05;102331.87;;;11.32;57.90
3748;BME280;1889;50.058;8.688;2023-02-12T03:35:22;102332.81;;;11.07;58.52
3748;BME280;1889;50.058;8.688;2023-02-12T03:38:04;102331.23;;;11.20;58.41
3748;BME280;1889;50.058;8.688;2023-02-12T03:40:35;102339.72;;;11.29;58.31
3748;BME280;1889;50.058;8.688;2023-02-12T03:43:14;102335.83;;;11.32;58.30
3748;BME280;1889;50.058;8.688;2023-02-12T03:46:02;102335.51;;;11.40;58.15
3748;BME280;1889;50.058;8.688;2023-02-12T03:51:27;102333.48;;;11.53;57.91
3748;BME280;1889;50.058;8.688;2023-02-12T03:53:56;102331.77;;;11.55;57.86
3748;BME280;1889;50.058;8.688;2023-02-12T03:56:29;102334.25;;;11.43;57.77
3748;BME280;1889;50.058;8.688;2023-02-12T03:58:58;102332.94;;;11.15;58.43
3748;BME280;1889;50.058;8.688;2023-02-12T04:01:28;102336.24;;;11.03;58.52
3748;BME280;1889;50.058;8.688;2023-02-12T04:04:00;102333.48;;;10.96;58.71
3748;BME280;1889;50.058;8.688;2023-02-12T04:06:28;102342.28;;;10.96;58.83
3748;BME280;1889;50.058;8.688;2023-02-12T04:09:03;102345.50;;;11.05;58.81
3748;BME280;1889;50.058;8.688;2023-02-12T04:11:56;102347.77;;;11.08;58.74
3748;BME280;1889;50.058;8.688;2023-02-12T04:20:20;102352.88;;;11.27;58.47
3748;BME280;1889;50.058;8.688;2023-02-12T04:31:28;102359.72;;;11.44;58.20
3748;BME280;1889;50.058;8.688;2023-02-12T04:34:04;102365.56;;;11.53;58.07
3748;BME280;1889;50.058;8.688;2023-02-12T04:36:34;102363.91;;;11.58;57.99
3748;BME280;1889;50.058;8.688;2023-02-12T04:39:14;102361.29;;;11.59;57.96
3748;BME280;1889;50.058;8.688;2023-02-12T04:41:42;102369.17;;;11.58;57.99
3748;BME280;1889;50.058;8.688;2023-02-12T04:44:16;102368.31;;;11.60;57.92
3748;BME280;1889;50.058;8.688;2023-02-12T04:46:46;102373.61;;;11.62;57.89
3748;BME280;1889;50.058;8.688;2023-02-12T04:49:17;102371.84;;;11.61;57.92
3748;BME280;1889;50.058;8.688;2023-02-12T04:51:47;102375.45;;;11.66;57.80
3748;BME280;1889;50.058;8.688;2023-02-12T04:54:19;102376.38;;;11.71;57.70
3748;BME280;1889;50.058;8.688;2023-02-12T04:56:49;102378.25;;;11.75;57.59
3748;BME280;1889;50.058;8.688;2023-02-12T04:59:19;102383.55;;;11.78;57.58
3748;BME280;1889;50.058;8.688;2023-02-12T05:01:48;102384.70;;;11.69;57.57
3748;BME280;1889;50.058;8.688;2023-02-12T05:04:18;102377.55;;;11.59;57.75
3748;BME280;1889;50.058;8.688;2023-02-12T05:06:47;102381.47;;;11.57;57.91
3748;BME280;1889;50.058;8.688;2023-02-12T05:09:18;102375.77;;;11.58;57.99
3748;BME280;1889;50.058;8.688;2023-02-12T05:11:48;102376.63;;;11.57;58.03
3748;BME280;1889;50.058;8.688;2023-02-12T05:14:17;102377.98;;;11.58;58.03
3748;BME280;1889;50.058;8.688;2023-02-12T05:16:47;102372.27;;;11.60;58.00
3748;BME280;1889;50.058;8.688;2023-02-12T05:19:16;102371.00;;;11.63;57.92
3748;BME280;1889;50.058;8.688;2023-02-12T05:21:48;102362.26;;;11.66;57.89
3748;BME280;1889;50.058;8.688;2023-02-12T05:24:17;102364.92;;;11.69;57.70
3748;BME280;1889;50.058;8.688;2023-02-12T05:26:48;102363.60;;;11.69;57.66
3748;BME280;1889;50.058;8.688;2023-02-12T05:29:18;102366.75;;;11.73;57.52
3748;BME280;1889;50.058;8.688;2023-02-12T05:31:47;102364.47;;;11.66;57.52
3748;BME280;1889;50.058;8.688;2023-02-12T05:34:16;102366.59;;;11.62;57.68
3748;BME280;1889;50.058;8.688;2023-02-12T05:36:46;102360.91;;;11.64;57.68
3748;BME280;1889;50.058;8.688;2023-02-12T05:39:15;102363.61;;;11.67;57.74
3748;BME280;1889;50.058;8.688;2023-02-12T05:41:44;102365.80;;;11.69;57.67
3748;BME280;1889;50.058;8.688;2023-02-12T05:44:14;102362.73;;;11.70;57.69
3748;BME280;1889;50.058;8.688;2023-02-12T05:46:43;102366.67;;;11.68;57.65
3748;BME280;1889;50.058;8.688;2023-02-12T05:49:12;102368.95;;;11.73;57.35
3748;BME280;1889;50.058;8.688;2023-02-12T05:51:42;102365.59;;;11.54;57.67
3748;BME280;1889;50.058;8.688;2023-02-12T05:54:11;102372.27;;;11.59;57.57
3748;BME280;1889;50.058;8.688;2023-02-12T05:56:45;102379.07;;;11.43;57.87
3748;BME280;1889;50.058;8.688;2023-02-12T05:59:18;102378.66;;;11.46;57.87
3748;BME280;1889;50.058;8.688;2023-02-12T06:01:49;102377.86;;;11.52;57.88
3748;BME280;1889;50.058;8.688;2023-02-12T06:04:24;102379.61;;;11.50;57.93
3748;BME280;1889;50.058;8.688;2023-02-12T06:06:54;102380.13;;;11.56;57.90
3748;BME280;1889;50.058;8.688;2023-02-12T06:09:24;102372.70;;;11.58;57.84
3748;BME280;1889;50.058;8.688;2023-02-12T06:11:53;102377.95;;;11.57;57.87
3748;BME280;1889;50.058;8.688;2023-02-12T06:14:22;102378.29;;;11.52;57.88
3748;BME280;1889;50.058;8.688;2023-02-12T06:16:52;102376.75;;;11.35;58.15
3748;BME280;1889;50.058;8.688;2023-02-12T06:19:21;102382.23;;;11.22;58.34
3748;BME280;1889;50.058;8.688;2023-02-12T06:21:51;102379.39;;;11.08;58.64
3748;BME280;1889;50.058;8.688;2023-02-12T06:24:20;102382.66;;;10.95;58.89
3748;BME280;1889;50.058;8.688;2023-02-12T06:26:51;102387.62;;;11.03;59.00
3748;BME280;1889;50.058;8.688;2023-02-12T06:29:20;102385.45;;;11.04;58.95
3748;BME280;1889;50.058;8.688;2023-02-12T06:31:50;102392.83;;;10.99;59.04
3748;BME280;1889;50.058;8.688;2023-02-12T06:34:19;102389.64;;;10.92;59.20
3748;BME280;1889;50.058;8.688;2023-02-12T06:36:48;102393.06;;;10.86;59.37
3748;BME280;1889;50.058;8.688;2023-02-12T06:39:18;102400.21;;;10.95;59.35
3748;BME280;1889;50.058;8.688;2023-02-12T06:41:47;102401.46;;;10.90;59.38
3748;BME280;1889;50.058;8.688;2023-02-12T06:44:16;102403.20;;;10.90;59.44
3748;BME280;1889;50.058;8.688;2023-02-12T06:46:46;102404.66;;;10.97;59.40
3748;BME280;1889;50.058;8.688;2023-02-12T06:49:15;102409.98;;;11.00;59.31
3748;BME280;1889;50.058;8.688;2023-02-12T06:51:45;102413.37;;;10.93;59.36
3748;BME280;1889;50.058;8.688;2023-02-12T06:54:15;102410.66;;;10.65;60.23
3748;BME280;1889;50.058;8.688;2023-02-12T06:56:45;102410.22;;;10.43;61.17
3748;BME280;1889;50.058;8.688;2023-02-12T06:59:16;102413.20;;;10.38;61.30
3748;BME280;1889;50.058;8.688;2023-02-12T07:01:45;102414.09;;;10.40;61.27
3748;BME280;1889;50.058;8.688;2023-02-12T07:04:15;102414.20;;;10.44;61.09
3748;BME280;1889;50.058;8.688;2023-02-12T07:06:44;102417.30;;;10.47;61.07
3748;BME280;1889;50.058;8.688;2023-02-12T07:09:13;102422.14;;;10.46;61.13
3748;BME280;1889;50.058;8.688;2023-02-12T07:11:42;102423.61;;;10.53;61.00
3748;BME280;1889;50.058;8.688;2023-02-12T07:14:15;102428.23;;;10.66;60.87
3748;BME280;1889;50.058;8.688;2023-02-12T07:16:44;102425.85;;;10.80;60.67
3748;BME280;1889;50.058;8.688;2023-02-12T07:19:14;102429.19;;;10.93;60.49
3748;BME280;1889;50.058;8.688;2023-02-12T07:21:45;102426.72;;;11.02;60.32
3748;BME280;1889;50.058;8.688;2023-02-12T07:24:14;102429.00;;;11.07;60.22
3748;BME280;1889;50.058;8.688;2023-02-12T07:26:45;102430.77;;;11.08;60.16
3748;BME280;1889;50.058;8.688;2023-02-12T07:29:14;102432.98;;;11.09;60.10
3748;BME280;1889;50.058;8.688;2023-02-12T07:31:44;102429.36;;;11.04;60.19
3748;BME280;1889;50.058;8.688;2023-02-12T07:34:13;102437.39;;;11.10;60.16
3748;BME280;1889;50.058;8.688;2023-02-12T07:36:43;102441.94;;;11.20;60.05
3748;BME280;1889;50.058;8.688;2023-02-12T07:39:12;102440.78;;;11.29;59.93
3748;BME280;1889;50.058;8.688;2023-02-12T07:41:41;102444.41;;;11.34;59.79
3748;BME280;1889;50.058;8.688;2023-02-12T07:44:11;102441.43;;;11.41;59.66
3748;BME280;1889;50.058;8.688;2023-02-12T07:46:46;102446.30;;;11.44;59.55
3748;BME280;1889;50.058;8.688;2023-02-12T07:49:20;102447.16;;;11.43;59.58
3748;BME280;1889;50.058;8.688;2023-02-12T07:51:55;102449.80;;;11.42;59.67
3748;BME280;1889;50.058;8.688;2023-02-12T07:54:22;102446.83;;;11.48;59.58
3748;BME280;1889;50.058;8.688;2023-02-12T07:56:52;102447.80;;;11.55;59.46
3748;BME280;1889;50.058;8.688;2023-02-12T07:59:21;102446.42;;;11.52;59.48
3748;BME280;1889;50.058;8.688;2023-02-12T08:01:51;102455.69;;;11.54;59.50
3748;BME280;1889;50.058;8.688;2023-02-12T08:04:23;102452.25;;;11.58;59.45
3748;BME280;1889;50.058;8.688;2023-02-12T08:06:54;102453.66;;;11.64;59.31
3748;BME280;1889;50.058;8.688;2023-02-12T08:09:26;102449.36;;;11.70;58.95
3748;BME280;1889;50.058;8.688;2023-02-12T08:11:57;102454.91;;;11.61;59.26
3748;BME280;1889;50.058;8.688;2023-02-12T08:14:27;102461.17;;;11.66;59.28
3748;BME280;1889;50.058;8.688;2023-02-12T08:16:56;102456.07;;;11.76;58.86
3748;BME280;1889;50.058;8.688;2023-02-12T08:19:26;102456.91;;;11.74;58.88
3748;BME280;1889;50.058;8.688;2023-02-12T08:21:55;102458.72;;;11.75;58.80
3748;BME280;1889;50.058;8.688;2023-02-12T08:24:25;102462.24;;;11.75;58.77
3748;BME280;1889;50.058;8.688;2023-02-12T08:26:56;102458.65;;;11.73;58.94
3748;BME280;1889;50.058;8.688;2023-02-12T08:29:29;102462.14;;;11.99;58.21
3748;BME280;1889;50.058;8.688;2023-02-12T08:32:01;102464.15;;;12.18;57.35
3748;BME280;1889;50.058;8.688;2023-02-12T08:34:34;102466.10;;;11.99;57.87
3748;BME280;1889;50.058;8.688;2023-02-12T08:37:05;102470.70;;;11.84;58.44
3748;BME280;1889;50.058;8.688;2023-02-12T08:39:34;102463.38;;;11.66;58.98
3748;BME280;1889;50.058;8.688;2023-02-12T08:42:05;102473.56;;;11.45;59.92
3748;BME280;1889;50.058;8.688;2023-02-12T08:44:34;102469.94;;;11.38;60.04
3748;BME280;1889;50.058;8.688;2023-02-12T08:47:04;102473.59;;;11.73;59.34
3748;BME280;1889;50.058;8.688;2023-02-12T08:49:34;102470.52;;;11.73;59.27
3748;BME280;1889;50.058;8.688;2023-02-12T08:52:03;102471.64;;;11.88;59.06
3748;BME280;1889;50.058;8.688;2023-02-12T08:54:34;102476.63;;;11.43;60.29
3748;BME280;1889;50.058;8.688;2023-02-12T08:57:04;102478.16;;;11.57;60.19
3748;BME280;1889;50.058;8.688;2023-02-12T08:59:33;102477.34;;;11.87;59.38
3748;BME280;1889;50.058;8.688;2023-02-12T09:02:02;102480.98;;;11.67;60.05
3748;BME280;1889;50.058;8.688;2023-02-12T09:04:34;102476.97;;;11.92;59.43
3748;BME280;1889;50.058;8.688;2023-02-12T09:07:04;102484.00;;;11.90;59.54
3748;BME280;1889;50.058;8.688;2023-02-12T09:09:33;102483.62;;;11.69;60.23
3748;BME280;1889;50.058;8.688;2023-02-12T09:12:02;102481.07;;;12.01;59.37
3748;BME280;1889;50.058;8.688;2023-02-12T09:14:32;102482.34;;;11.97;59.49
3748;BME280;1889;50.058;8.688;2023-02-12T09:17:01;102486.31;;;12.29;58.78
3748;BME280;1889;50.058;8.688;2023-02-12T09:19:31;102486.48;;;12.43;58.19
3748;BME280;1889;50.058;8.688;2023-02-12T09:22:00;102494.05;;;12.49;57.97
3748;BME280;1889;50.058;8.688;2023-02-12T09:24:29;102491.14;;;12.28;58.57
3748;BME280;1889;50.058;8.688;2023-02-12T09:26:59;102490.44;;;12.10;59.14
3748;BME280;1889;50.058;8.688;2023-02-12T09:29:28;102484.39;;;12.16;59.17
3748;BME280;1889;50.058;8.688;2023-02-12T09:31:58;102493.98;;;12.43;58.49
3748;BME280;1889;50.058;8.688;2023-02-12T09:34:29;102491.06;;;12.57;58.05
3748;BME280;1889;50.058;8.688;2023-02-12T09:36:58;102488.77;;;12.49;58.29
3748;BME280;1889;50.058;8.688;2023-02-12T09:39:27;102490.23;;;12.60;58.31
3748;BME280;1889;50.058;8.688;2023-02-12T09:42:03;102488.45;;;12.59;58.46
3748;BME280;1889;50.058;8.688;2023-02-12T09:44:45;102489.06;;;12.74;57.99
3748;BME280;1889;50.058;8.688;2023-02-12T09:52:24;102494.78;;;12.73;58.26
3748;BME280;1889;50.058;8.688;2023-02-12T09:54:54;102487.87;;;12.84;58.18
3748;BME280;1889;50.058;8.688;2023-02-12T09:57:31;102490.16;;;12.92;58.08
3748;BME280;1889;50.058;8.688;2023-02-12T10:00:08;102488.81;;;12.88;58.29
3748;BME280;1889;50.058;8.688;2023-02-12T10:02:39;102492.86;;;12.95;58.22
3748;BME280;1889;50.058;8.688;2023-02-12T10:05:24;102492.96;;;12.68;59.06
3748;BME280;1889;50.058;8.688;2023-02-12T10:08:01;102492.77;;;12.88;58.72
3748;BME280;1889;50.058;8.688;2023-02-12T10:10:46;102490.75;;;13.04;58.23
3748;BME280;1889;50.058;8.688;2023-02-12T10:13:39;102491.63;;;13.06;58.24
3748;BME280;1889;50.058;8.688;2023-02-12T10:27:50;102495.55;;;13.02;59.29
3748;BME280;1889;50.058;8.688;2023-02-12T10:30:42;102486.47;;;13.15;59.07
3748;BME280;1889;50.058;8.688;2023-02-12T10:33:20;102486.61;;;13.30;58.70
3748;BME280;1889;50.058;8.688;2023-02-12T10:35:58;102488.45;;;13.39;58.35
3748;BME280;1889;50.058;8.688;2023-02-12T10:38:30;102484.50;;;12.99;59.42
3748;BME280;1889;50.058;8.688;2023-02-12T10:40:54;102484.98;;;13.02;59.43
3748;BME280;1889;50.058;8.688;2023-02-12T10:43:25;102486.56;;;13.24;59.01
3748;BME280;1889;50.058;8.688;2023-02-12T10:45:54;102482.66;;;13.29;59.06
3748;BME280;1889;50.058;8.688;2023-02-12T10:48:36;102472.70;;;13.05;59.71
3748;BME280;1889;50.058;8.688;2023-02-12T10:53:56;102468.67;;;13.47;58.93
3748;BME280;1889;50.058;8.688;2023-02-12T10:56:27;102472.38;;;13.13;59.35
3748;BME280;1889;50.058;8.688;2023-02-12T10:58:59;102467.16;;;12.84;60.62
3748;BME280;1889;50.058;8.688;2023-02-12T11:01:34;102458.66;;;13.12;60.10
3748;BME280;1889;50.058;8.688;2023-02-12T11:04:23;102457.59;;;13.40;59.56
3748;BME280;1889;50.058;8.688;2023-02-12T11:07:04;102457.97;;;13.28;59.39
3748;BME280;1889;50.058;8.688;2023-02-12T11:09:46;102453.46;;;12.78;61.00
3748;BME280;1889;50.058;8.688;2023-02-12T11:12:33;102457.88;;;13.19;59.95
3748;BME280;1889;50.058;8.688;2023-02-12T11:15:12;102449.25;;;13.42;59.17
3748;BME280;1889;50.058;8.688;2023-02-12T11:17:45;102446.14;;;13.38;59.36
3748;BME280;1889;50.058;8.688;2023-02-12T11:20:21;102439.89;;;13.31;59.22
3748;BME280;1889;50.058;8.688;2023-02-12T11:22:58;102440.89;;;13.44;59.42
3748;BME280;1889;50.058;8.688;2023-02-12T11:25:30;102443.80;;;13.77;58.71
3748;BME280;1889;50.058;8.688;2023-02-12T11:28:09;102438.83;;;13.12;60.11
3748;BME280;1889;50.058;8.688;2023-02-12T11:30:35;102435.77;;;13.66;59.15
3748;BME280;1889;50.058;8.688;2023-02-12T11:33:15;102437.66;;;13.87;58.26
3748;BME280;1889;50.058;8.688;2023-02-12T11:35:49;102424.42;;;13.87;57.86
3748;BME280;1889;50.058;8.688;2023-02-12T11:38:26;102424.42;;;13.87;57.86
3748;BME280;1889;50.058;8.688;2023-02-12T11:40:58;102423.89;;;13.69;58.53
3748;BME280;1889;50.058;8.688;2023-02-12T11:43:28;102425.17;;;13.65;58.62
3748;BME280;1889;50.058;8.688;2023-02-12T11:45:59;102423.10;;;13.84;58.13
3748;BME280;1889;50.058;8.688;2023-02-12T11:48:31;102416.39;;;13.72;58.72
3748;BME280;1889;50.058;8.688;2023-02-12T11:51:04;102416.39;;;13.72;58.72
3748;BME280;1889;50.058;8.688;2023-02-12T11:53:39;102416.48;;;13.87;58.20
3748;BME280;1889;50.058;8.688;2023-02-12T11:56:10;102410.42;;;14.11;57.57
3748;BME280;1889;50.058;8.688;2023-02-12T11:58:40;102409.05;;;13.94;57.82
3748;BME280;1889;50.058;8.688;2023-02-12T12:01:31;102402.98;;;14.23;57.27
3748;BME280;1889;50.058;8.688;2023-02-12T12:04:10;102395.39;;;14.01;57.60
3748;BME280;1889;50.058;8.688;2023-02-12T12:06:55;102398.59;;;14.29;57.18
3748;BME280;1889;50.058;8.688;2023-02-12T12:09:31;102398.39;;;13.84;57.85
3748;BME280;1889;50.058;8.688;2023-02-12T12:14:43;102397.66;;;14.20;57.34
3748;BME280;1889;50.058;8.688;2023-02-12T12:17:56;102394.31;;;13.67;58.10
3748;BME280;1889;50.058;8.688;2023-02-12T12:20:49;102392.67;;;13.21;59.34
3748;BME280;1889;50.058;8.688;2023-02-12T12:26:00;102392.01;;;13.54;59.22
3748;BME280;1889;50.058;8.688;2023-02-12T12:28:39;102385.22;;;13.94;58.14
3748;BME280;1889;50.058;8.688;2023-02-12T12:31:16;102385.58;;;13.82;58.54
3748;BME280;1889;50.058;8.688;2023-02-12T12:34:26;102382.81;;;13.63;58.06
3748;BME280;1889;50.058;8.688;2023-02-12T12:50:20;102359.16;;;13.95;58.73
3748;BME280;1889;50.058;8.688;2023-02-12T12:53:09;102363.06;;;13.80;58.83
3748;BME280;1889;50.058;8.688;2023-02-12T13:04:17;102349.23;;;14.46;56.96
3748;BME280;1889;50.058;8.688;2023-02-12T13:06:49;102348.67;;;14.17;57.57
3748;BME280;1889;50.058;8.688;2023-02-12T13:12:27;102353.88;;;13.92;57.68
3748;BME280;1889;50.058;8.688;2023-02-12T13:15:16;102346.76;;;13.82;58.28
3748;BME280;1889;50.058;8.688;2023-02-12T13:17:59;102343.70;;;13.90;58.30
3748;BME280;1889;50.058;8.688;2023-02-12T13:23:14;102338.11;;;14.24;57.38
3748;BME280;1889;50.058;8.688;2023-02-12T13:28:37;102342.45;;;14.07;56.63
3748;BME280;1889;50.058;8.688;2023-02-12T13:31:09;102344.43;;;13.59;58.29
3748;BME280;1889;50.058;8.688;2023-02-12T13:33:42;102336.58;;;13.74;58.22
3748;BME280;1889;50.058;8.688;2023-02-12T13:36:13;102338.05;;;14.07;57.68
3748;BME280;1889;50.058;8.688;2023-02-12T13:41:45;102335.11;;;14.43;56.73
3748;BME280;1889;50.058;8.688;2023-02-12T13:44:24;102328.41;;;14.31;57.02
3748;BME280;1889;50.058;8.688;2023-02-12T13:46:58;102327.03;;;14.14;57.40
3748;BME280;1889;50.058;8.688;2023-02-12T13:49:38;102331.00;;;14.14;57.08
3748;BME280;1889;50.058;8.688;2023-02-12T13:52:22;102334.28;;;13.58;58.41
3748;BME280;1889;50.058;8.688;2023-02-12T13:54:59;102328.22;;;13.81;58.24
3748;BME280;1889;50.058;8.688;2023-02-12T13:57:27;102328.70;;;13.86;58.06
3748;BME280;1889;50.058;8.688;2023-02-12T13:59:56;102325.81;;;13.42;58.47
3748;BME280;1889;50.058;8.688;2023-02-12T14:05:23;102327.80;;;13.84;58.07
3748;BME280;1889;50.058;8.688;2023-02-12T14:07:58;102330.47;;;13.90;57.85
3748;BME280;1889;50.058;8.688;2023-02-12T14:10:34;102330.55;;;14.13;57.57
3748;BME280;1889;50.058;8.688;2023-02-12T14:13:21;102337.63;;;14.09;57.36
3748;BME280;1889;50.058;8.688;2023-02-12T14:15:52;102332.88;;;14.39;56.48
3748;BME280;1889;50.058;8.688;2023-02-12T14:18:32;102332.89;;;14.53;56.05
3748;BME280;1889;50.058;8.688;2023-02-12T14:23:45;102336.66;;;13.95;57.13
3748;BME280;1889;50.058;8.688;2023-02-12T14:26:16;102334.11;;;14.17;57.03
3748;BME280;1889;50.058;8.688;2023-02-12T14:28:57;102327.07;;;14.29;56.79
3748;BME280;1889;50.058;8.688;2023-02-12T14:36:41;102321.33;;;14.30;56.70
3748;BME280;1889;50.058;8.688;2023-02-12T14:44:42;102316.56;;;14.49;56.33
3748;BME280;1889;50.058;8.688;2023-02-12T14:49:46;102320.88;;;14.23;55.93
3748;BME280;1889;50.058;8.688;2023-02-12T14:52:18;102312.90;;;14.13;56.24
3748;BME280;1889;50.058;8.688;2023-02-12T14:55:03;102318.21;;;14.15;56.26
3748;BME280;1889;50.058;8.688;2023-02-12T14:57:39;102312.34;;;13.82;57.46
3748;BME280;1889;50.058;8.688;2023-02-12T15:02:59;102309.48;;;14.60;55.85
3748;BME280;1889;50.058;8.688;2023-02-12T15:08:23;102309.95;;;14.50;56.14
3748;BME280;1889;50.058;8.688;2023-02-12T15:10:53;102307.66;;;14.38;55.82
3748;BME280;1889;50.058;8.688;2023-02-12T15:13:25;102306.28;;;13.20;59.05
3748;BME280;1889;50.058;8.688;2023-02-12T15:16:02;102305.40;;;13.23;59.42
3748;BME280;1889;50.058;8.688;2023-02-12T15:18:44;102303.37;;;13.50;58.78
3748;BME280;1889;50.058;8.688;2023-02-12T15:21:18;102308.16;;;13.36;59.22
3748;BME280;1889;50.058;8.688;2023-02-12T15:24:04;102299.95;;;13.73;58.24
3748;BME280;1889;50.058;8.688;2023-02-12T15:26:48;102303.38;;;13.51;58.83
3748;BME280;1889;50.058;8.688;2023-02-12T15:29:28;102299.92;;;13.00;60.08
3748;BME280;1889;50.058;8.688;2023-02-12T15:31:58;102293.55;;;13.30;59.34
3748;BME280;1889;50.058;8.688;2023-02-12T15:34:30;102292.81;;;13.53;58.53
3748;BME280;1889;50.058;8.688;2023-02-12T15:37:02;102294.09;;;13.44;58.73
3748;BME280;1889;50.058;8.688;2023-02-12T15:39:43;102291.37;;;13.34;58.95
3748;BME280;1889;50.058;8.688;2023-02-12T15:42:04;102298.34;;;13.22;59.46
3748;BME280;1889;50.058;8.688;2023-02-12T15:44:35;102294.11;;;12.90;60.48